sensor_id;sensor_type;location;lat;lon;timestamp;P1;durP1;ratioP1;P2;durP2;ratioP2
68653;SDS011;55636;51.108;13.622;2023-01-09T00:00:56;12.87;;;11.20;;
68653;SDS011;55636;51.108;13.622;2023-01-09T00:01:58;14.67;;;11.87;;
68653;SDS011;55636;51.108;13.622;2023-01-09T00:03:00;13.90;;;11.53;;
68653;SDS011;55636;51.108;13.622;2023-01-09T00:04:03;15.43;;;11.60;;
68653;SDS011;55636;51.108;13.622;2023-01-09T00:05:06;14.77;;;11.67;;
68653;SDS011;55636;51.108;13.622;2023-01-09T00:06:08;14.50;;;11.90;;
68653;SDS011;55636;51.108;13.622;2023-01-09T00:07:11;15.00;;;12.37;;
68653;SDS011;55636;51.108;13.622;2023-01-09T00:08:13;12.73;;;10.83;;
68653;SDS011;55636;51.108;13.622;2023-01-09T00:09:15;13.83;;;11.77;;
68653;SDS011;55636;51.108;13.622;2023-01-09T00:10:18;12.80;;;11.00;;
68653;SDS011;55636;51.108;13.622;2023-01-09T00:11:20;13.67;;;11.63;;
68653;SDS011;55636;51.108;13.622;2023-01-09T00:12:22;14.60;;;11.67;;
68653;SDS011;55636;51.108;13.622;2023-01-09T00:13:24;13.27;;;11.37;;
68653;SDS011;55636;51.108;13.622;2023-01-09T00:14:27;13.00;;;11.20;;
68653;SDS011;55636;51.108;13.622;2023-01-09T00:15:29;12.83;;;10.97;;
68653;SDS011;55636;51.108;13.622;2023-01-09T00:16:31;13.07;;;11.03;;
68653;SDS011;55636;51.108;13.622;2023-01-09T00:17:33;13.87;;;11.40;;
68653;SDS011;55636;51.108;13.622;2023-01-09T00:18:35;13.10;;;11.33;;
68653;SDS011;55636;51.108;13.622;2023-01-09T00:19:38;14.10;;;11.63;;
68653;SDS011;55636;51.108;13.622;2023-01-09T00:20:40;11.93;;;10.63;;
68653;SDS011;55636;51.108;13.622;2023-01-09T00:21:42;13.00;;;11.13;;
68653;SDS011;55636;51.108;13.622;2023-01-09T00:22:44;12.77;;;11.37;;
68653;SDS011;55636;51.108;13.622;2023-01-09T00:23:47;13.70;;;11.30;;
68653;SDS011;55636;51.108;13.622;2023-01-09T00:24:49;12.53;;;10.97;;
68653;SDS011;55636;51.108;13.622;2023-01-09T00:26:00;12.63;;;11.03;;
68653;SDS011;55636;51.108;13.622;2023-01-09T00:27:07;12.40;;;10.77;;
68653;SDS011;55636;51.108;13.622;2023-01-09T00:28:10;15.37;;;12.00;;
68653;SDS011;55636;51.108;13.622;2023-01-09T00:29:12;13.47;;;11.00;;
68653;SDS011;55636;51.108;13.622;2023-01-09T00:30:14;12.90;;;10.77;;
68653;SDS011;55636;51.108;13.622;2023-01-09T00:31:17;13.57;;;10.53;;
68653;SDS011;55636;51.108;13.622;2023-01-09T00:32:19;14.33;;;11.47;;
68653;SDS011;55636;51.108;13.622;2023-01-09T00:33:23;12.97;;;10.80;;
68653;SDS011;55636;51.108;13.622;2023-01-09T00:34:29;13.40;;;11.07;;
68653;SDS011;55636;51.108;13.622;2023-01-09T00:35:31;14.30;;;11.40;;
68653;SDS011;55636;51.108;13.622;2023-01-09T00:36:34;13.63;;;11.27;;
68653;SDS011;55636;51.108;13.622;2023-01-09T00:37:36;14.20;;;11.30;;
68653;SDS011;55636;51.108;13.622;2023-01-09T00:38:39;13.43;;;11.27;;
68653;SDS011;55636;51.108;13.622;2023-01-09T00:39:42;14.20;;;11.40;;
68653;SDS011;55636;51.108;13.622;2023-01-09T00:40:44;12.83;;;11.37;;
68653;SDS011;55636;51.108;13.622;2023-01-09T00:41:47;13.03;;;10.57;;
68653;SDS011;55636;51.108;13.622;2023-01-09T00:42:53;12.23;;;10.93;;
68653;SDS011;55636;51.108;13.622;2023-01-09T00:43:59;15.30;;;11.43;;
68653;SDS011;55636;51.108;13.622;2023-01-09T00:45:10;13.53;;;11.30;;
68653;SDS011;55636;51.108;13.622;2023-01-09T00:46:17;15.30;;;11.53;;
68653;SDS011;55636;51.108;13.622;2023-01-09T00:47:32;12.73;;;10.33;;
68653;SDS011;55636;51.108;13.622;2023-01-09T00:48:39;13.27;;;10.57;;
68653;SDS011;55636;51.108;13.622;2023-01-09T00:49:45;14.73;;;10.87;;
68653;SDS011;55636;51.108;13.622;2023-01-09T00:50:48;15.03;;;11.57;;
68653;SDS011;55636;51.108;13.622;2023-01-09T00:51:52;13.20;;;10.90;;
68653;SDS011;55636;51.108;13.622;2023-01-09T00:52:56;14.07;;;10.93;;
68653;SDS011;55636;51.108;13.622;2023-01-09T00:54:04;12.33;;;10.50;;
68653;SDS011;55636;51.108;13.622;2023-01-09T00:55:06;14.10;;;11.50;;
68653;SDS011;55636;51.108;13.622;2023-01-09T00:56:10;14.37;;;11.03;;
68653;SDS011;55636;51.108;13.622;2023-01-09T00:57:15;14.17;;;11.70;;
68653;SDS011;55636;51.108;13.622;2023-01-09T00:58:18;14.50;;;11.30;;
68653;SDS011;55636;51.108;13.622;2023-01-09T00:59:20;12.83;;;10.83;;
68653;SDS011;55636;51.108;13.622;2023-01-09T01:00:23;14.70;;;11.57;;
68653;SDS011;55636;51.108;13.622;2023-01-09T01:01:25;14.27;;;11.53;;
68653;SDS011;55636;51.108;13.622;2023-01-09T01:02:27;14.73;;;11.30;;
68653;SDS011;55636;51.108;13.622;2023-01-09T01:03:30;14.20;;;11.73;;
68653;SDS011;55636;51.108;13.622;2023-01-09T01:04:32;13.30;;;10.77;;
68653;SDS011;55636;51.108;13.622;2023-01-09T01:05:53;14.70;;;11.37;;
68653;SDS011;55636;51.108;13.622;2023-01-09T01:07:14;14.53;;;11.10;;
68653;SDS011;55636;51.108;13.622;2023-01-09T01:08:34;14.50;;;11.53;;
68653;SDS011;55636;51.108;13.622;2023-01-09T01:09:37;14.60;;;11.70;;
68653;SDS011;55636;51.108;13.622;2023-01-09T01:10:39;14.50;;;11.37;;
68653;SDS011;55636;51.108;13.622;2023-01-09T01:11:41;14.27;;;11.50;;
68653;SDS011;55636;51.108;13.622;2023-01-09T01:12:44;14.30;;;11.40;;
68653;SDS011;55636;51.108;13.622;2023-01-09T01:13:47;14.93;;;11.63;;
68653;SDS011;55636;51.108;13.622;2023-01-09T01:14:50;14.83;;;11.43;;
68653;SDS011;55636;51.108;13.622;2023-01-09T01:15:55;14.47;;;12.00;;
68653;SDS011;55636;51.108;13.622;2023-01-09T01:16:58;16.07;;;11.90;;
68653;SDS011;55636;51.108;13.622;2023-01-09T01:18:00;17.70;;;12.63;;
68653;SDS011;55636;51.108;13.622;2023-01-09T01:19:02;15.03;;;11.97;;
68653;SDS011;55636;51.108;13.622;2023-01-09T01:20:09;15.90;;;11.93;;
68653;SDS011;55636;51.108;13.622;2023-01-09T01:21:13;16.10;;;11.93;;
68653;SDS011;55636;51.108;13.622;2023-01-09T01:22:16;14.73;;;11.70;;
68653;SDS011;55636;51.108;13.622;2023-01-09T01:23:18;16.43;;;12.30;;
68653;SDS011;55636;51.108;13.622;2023-01-09T01:24:20;15.73;;;12.40;;
68653;SDS011;55636;51.108;13.622;2023-01-09T01:25:22;16.10;;;11.93;;
68653;SDS011;55636;51.108;13.622;2023-01-09T01:26:25;14.70;;;11.53;;
68653;SDS011;55636;51.108;13.622;2023-01-09T01:27:27;16.30;;;12.43;;
68653;SDS011;55636;51.108;13.622;2023-01-09T01:28:29;14.43;;;11.93;;
68653;SDS011;55636;51.108;13.622;2023-01-09T01:29:32;16.07;;;11.97;;
68653;SDS011;55636;51.108;13.622;2023-01-09T01:30:38;16.80;;;11.83;;
68653;SDS011;55636;51.108;13.622;2023-01-09T01:31:41;17.63;;;12.23;;
68653;SDS011;55636;51.108;13.622;2023-01-09T01:32:43;15.73;;;12.17;;
68653;SDS011;55636;51.108;13.622;2023-01-09T01:33:45;16.97;;;12.47;;
68653;SDS011;55636;51.108;13.622;2023-01-09T01:34:48;15.90;;;11.63;;
68653;SDS011;55636;51.108;13.622;2023-01-09T01:35:50;16.53;;;12.13;;
68653;SDS011;55636;51.108;13.622;2023-01-09T01:37:00;14.73;;;11.77;;
68653;SDS011;55636;51.108;13.622;2023-01-09T01:38:03;16.17;;;11.93;;
68653;SDS011;55636;51.108;13.622;2023-01-09T01:39:05;15.13;;;11.87;;
68653;SDS011;55636;51.108;13.622;2023-01-09T01:40:08;14.37;;;11.50;;
68653;SDS011;55636;51.108;13.622;2023-01-09T01:41:11;15.07;;;11.97;;
68653;SDS011;55636;51.108;13.622;2023-01-09T01:42:14;16.03;;;11.73;;
68653;SDS011;55636;51.108;13.622;2023-01-09T01:43:16;16.07;;;12.40;;
68653;SDS011;55636;51.108;13.622;2023-01-09T01:46:00;14.97;;;11.90;;
68653;SDS011;55636;51.108;13.622;2023-01-09T01:47:02;15.60;;;11.90;;
68653;SDS011;55636;51.108;13.622;2023-01-09T01:48:05;15.90;;;11.90;;
68653;SDS011;55636;51.108;13.622;2023-01-09T01:49:13;16.10;;;12.77;;
68653;SDS011;55636;51.108;13.622;2023-01-09T01:50:23;15.40;;;12.47;;
68653;SDS011;55636;51.108;13.622;2023-01-09T01:51:38;16.73;;;12.50;;
68653;SDS011;55636;51.108;13.622;2023-01-09T01:52:47;15.23;;;12.50;;
68653;SDS011;55636;51.108;13.622;2023-01-09T01:53:56;15.90;;;12.40;;
68653;SDS011;55636;51.108;13.622;2023-01-09T01:55:03;14.50;;;11.57;;
68653;SDS011;55636;51.108;13.622;2023-01-09T01:56:09;14.60;;;11.97;;
68653;SDS011;55636;51.108;13.622;2023-01-09T01:57:17;15.40;;;11.90;;
68653;SDS011;55636;51.108;13.622;2023-01-09T01:58:19;15.87;;;11.90;;
68653;SDS011;55636;51.108;13.622;2023-01-09T01:59:25;16.30;;;12.57;;
68653;SDS011;55636;51.108;13.622;2023-01-09T02:00:34;17.67;;;12.47;;
68653;SDS011;55636;51.108;13.622;2023-01-09T02:01:40;15.67;;;12.03;;
68653;SDS011;55636;51.108;13.622;2023-01-09T02:02:46;15.43;;;11.40;;
68653;SDS011;55636;51.108;13.622;2023-01-09T02:03:49;16.93;;;12.10;;
68653;SDS011;55636;51.108;13.622;2023-01-09T02:04:56;15.27;;;11.43;;
68653;SDS011;55636;51.108;13.622;2023-01-09T02:06:01;16.90;;;12.07;;
68653;SDS011;55636;51.108;13.622;2023-01-09T02:07:07;14.97;;;11.90;;
68653;SDS011;55636;51.108;13.622;2023-01-09T02:08:11;14.67;;;11.83;;
68653;SDS011;55636;51.108;13.622;2023-01-09T02:09:13;14.03;;;11.57;;
68653;SDS011;55636;51.108;13.622;2023-01-09T02:10:18;15.03;;;11.80;;
68653;SDS011;55636;51.108;13.622;2023-01-09T02:11:24;15.47;;;11.30;;
68653;SDS011;55636;51.108;13.622;2023-01-09T02:12:27;13.97;;;11.43;;
68653;SDS011;55636;51.108;13.622;2023-01-09T02:13:30;14.43;;;12.27;;
68653;SDS011;55636;51.108;13.622;2023-01-09T02:14:33;14.60;;;11.50;;
68653;SDS011;55636;51.108;13.622;2023-01-09T02:15:46;16.10;;;11.50;;
68653;SDS011;55636;51.108;13.622;2023-01-09T02:17:14;15.53;;;11.90;;
68653;SDS011;55636;51.108;13.622;2023-01-09T02:18:46;15.80;;;11.90;;
68653;SDS011;55636;51.108;13.622;2023-01-09T02:20:56;14.93;;;11.40;;
68653;SDS011;55636;51.108;13.622;2023-01-09T02:25:21;13.87;;;10.63;;
68653;SDS011;55636;51.108;13.622;2023-01-09T02:29:26;14.73;;;11.80;;
68653;SDS011;55636;51.108;13.622;2023-01-09T02:32:29;14.63;;;11.03;;
68653;SDS011;55636;51.108;13.622;2023-01-09T02:33:51;15.53;;;10.93;;
68653;SDS011;55636;51.108;13.622;2023-01-09T02:35:18;13.27;;;10.73;;
68653;SDS011;55636;51.108;13.622;2023-01-09T02:36:33;14.03;;;10.60;;
68653;SDS011;55636;51.108;13.622;2023-01-09T02:37:57;15.97;;;11.53;;
68653;SDS011;55636;51.108;13.622;2023-01-09T02:42:13;13.63;;;10.80;;
68653;SDS011;55636;51.108;13.622;2023-01-09T02:43:20;14.40;;;11.27;;
68653;SDS011;55636;51.108;13.622;2023-01-09T02:44:24;15.27;;;11.47;;
68653;SDS011;55636;51.108;13.622;2023-01-09T02:45:28;13.43;;;10.73;;
68653;SDS011;55636;51.108;13.622;2023-01-09T02:46:31;14.53;;;10.80;;
68653;SDS011;55636;51.108;13.622;2023-01-09T02:48:41;13.37;;;10.47;;
68653;SDS011;55636;51.108;13.622;2023-01-09T02:49:47;14.10;;;10.73;;
68653;SDS011;55636;51.108;13.622;2023-01-09T02:51:12;13.70;;;10.53;;
68653;SDS011;55636;51.108;13.622;2023-01-09T02:54:19;14.30;;;10.07;;
68653;SDS011;55636;51.108;13.622;2023-01-09T02:56:42;13.70;;;10.67;;
68653;SDS011;55636;51.108;13.622;2023-01-09T02:59:22;15.17;;;10.43;;
68653;SDS011;55636;51.108;13.622;2023-01-09T03:05:18;13.53;;;10.23;;
68653;SDS011;55636;51.108;13.622;2023-01-09T03:07:42;12.50;;;9.93;;
68653;SDS011;55636;51.108;13.622;2023-01-09T03:08:51;13.07;;;10.53;;
68653;SDS011;55636;51.108;13.622;2023-01-09T03:09:59;12.33;;;10.33;;
68653;SDS011;55636;51.108;13.622;2023-01-09T03:11:19;14.90;;;11.27;;
68653;SDS011;55636;51.108;13.622;2023-01-09T03:12:23;12.87;;;10.40;;
68653;SDS011;55636;51.108;13.622;2023-01-09T03:13:31;13.43;;;10.70;;
68653;SDS011;55636;51.108;13.622;2023-01-09T03:14:39;13.47;;;11.07;;
68653;SDS011;55636;51.108;13.622;2023-01-09T03:15:46;13.73;;;10.60;;
68653;SDS011;55636;51.108;13.622;2023-01-09T03:16:57;13.03;;;10.33;;
68653;SDS011;55636;51.108;13.622;2023-01-09T03:18:04;13.40;;;10.73;;
68653;SDS011;55636;51.108;13.622;2023-01-09T03:19:12;14.53;;;11.33;;
68653;SDS011;55636;51.108;13.622;2023-01-09T03:20:20;14.07;;;10.70;;
68653;SDS011;55636;51.108;13.622;2023-01-09T03:21:25;15.33;;;11.20;;
68653;SDS011;55636;51.108;13.622;2023-01-09T03:22:28;14.73;;;11.10;;
68653;SDS011;55636;51.108;13.622;2023-01-09T03:24:53;13.47;;;10.87;;
68653;SDS011;55636;51.108;13.622;2023-01-09T03:25:56;13.00;;;10.73;;
68653;SDS011;55636;51.108;13.622;2023-01-09T03:26:58;12.73;;;10.70;;
68653;SDS011;55636;51.108;13.622;2023-01-09T03:28:04;12.47;;;10.40;;
68653;SDS011;55636;51.108;13.622;2023-01-09T03:29:08;15.17;;;10.80;;
68653;SDS011;55636;51.108;13.622;2023-01-09T03:30:11;13.07;;;10.67;;
68653;SDS011;55636;51.108;13.622;2023-01-09T03:31:13;13.67;;;11.17;;
68653;SDS011;55636;51.108;13.622;2023-01-09T03:32:18;15.03;;;11.33;;
68653;SDS011;55636;51.108;13.622;2023-01-09T03:33:20;16.47;;;11.97;;
68653;SDS011;55636;51.108;13.622;2023-01-09T03:34:23;13.60;;;11.23;;
68653;SDS011;55636;51.108;13.622;2023-01-09T03:35:25;14.40;;;11.63;;
68653;SDS011;55636;51.108;13.622;2023-01-09T03:36:28;14.90;;;11.60;;
68653;SDS011;55636;51.108;13.622;2023-01-09T03:37:30;15.87;;;12.07;;
68653;SDS011;55636;51.108;13.622;2023-01-09T03:38:32;15.30;;;11.40;;
68653;SDS011;55636;51.108;13.622;2023-01-09T03:39:35;14.13;;;11.37;;
68653;SDS011;55636;51.108;13.622;2023-01-09T03:40:37;15.53;;;11.77;;
68653;SDS011;55636;51.108;13.622;2023-01-09T03:41:39;14.37;;;11.17;;
68653;SDS011;55636;51.108;13.622;2023-01-09T03:42:41;13.63;;;11.60;;
68653;SDS011;55636;51.108;13.622;2023-01-09T03:43:44;14.40;;;11.90;;
68653;SDS011;55636;51.108;13.622;2023-01-09T03:44:46;15.07;;;12.23;;
68653;SDS011;55636;51.108;13.622;2023-01-09T03:45:48;16.50;;;11.87;;
68653;SDS011;55636;51.108;13.622;2023-01-09T03:46:51;16.00;;;11.57;;
68653;SDS011;55636;51.108;13.622;2023-01-09T03:47:53;15.33;;;11.40;;
68653;SDS011;55636;51.108;13.622;2023-01-09T03:48:55;14.77;;;11.93;;
68653;SDS011;55636;51.108;13.622;2023-01-09T03:49:57;15.20;;;11.67;;
68653;SDS011;55636;51.108;13.622;2023-01-09T03:50:59;15.30;;;12.00;;
68653;SDS011;55636;51.108;13.622;2023-01-09T03:52:02;14.20;;;11.23;;
68653;SDS011;55636;51.108;13.622;2023-01-09T03:53:04;14.73;;;11.50;;
68653;SDS011;55636;51.108;13.622;2023-01-09T03:54:06;14.67;;;11.53;;
68653;SDS011;55636;51.108;13.622;2023-01-09T03:55:09;14.77;;;11.47;;
68653;SDS011;55636;51.108;13.622;2023-01-09T03:56:14;14.23;;;11.47;;
68653;SDS011;55636;51.108;13.622;2023-01-09T03:57:22;15.20;;;12.17;;
68653;SDS011;55636;51.108;13.622;2023-01-09T03:58:25;15.07;;;11.83;;
68653;SDS011;55636;51.108;13.622;2023-01-09T03:59:27;15.57;;;11.80;;
68653;SDS011;55636;51.108;13.622;2023-01-09T04:00:29;14.97;;;11.33;;
68653;SDS011;55636;51.108;13.622;2023-01-09T04:01:32;15.13;;;11.03;;
68653;SDS011;55636;51.108;13.622;2023-01-09T04:02:34;14.53;;;11.77;;
68653;SDS011;55636;51.108;13.622;2023-01-09T04:03:37;13.80;;;11.50;;
68653;SDS011;55636;51.108;13.622;2023-01-09T04:04:40;13.73;;;11.03;;
68653;SDS011;55636;51.108;13.622;2023-01-09T04:05:43;14.23;;;11.40;;
68653;SDS011;55636;51.108;13.622;2023-01-09T04:06:47;15.80;;;11.77;;
68653;SDS011;55636;51.108;13.622;2023-01-09T04:07:49;14.67;;;11.20;;
68653;SDS011;55636;51.108;13.622;2023-01-09T04:08:52;14.43;;;11.43;;
68653;SDS011;55636;51.108;13.622;2023-01-09T04:09:54;15.30;;;11.40;;
68653;SDS011;55636;51.108;13.622;2023-01-09T04:10:56;15.30;;;11.60;;
68653;SDS011;55636;51.108;13.622;2023-01-09T04:11:58;15.33;;;11.53;;
68653;SDS011;55636;51.108;13.622;2023-01-09T04:13:01;15.63;;;12.03;;
68653;SDS011;55636;51.108;13.622;2023-01-09T04:14:03;15.07;;;11.47;;
68653;SDS011;55636;51.108;13.622;2023-01-09T04:15:05;15.80;;;12.00;;
68653;SDS011;55636;51.108;13.622;2023-01-09T04:16:08;13.93;;;11.17;;
68653;SDS011;55636;51.108;13.622;2023-01-09T04:17:10;16.07;;;12.23;;
68653;SDS011;55636;51.108;13.622;2023-01-09T04:18:12;16.43;;;11.97;;
68653;SDS011;55636;51.108;13.622;2023-01-09T04:19:15;14.83;;;11.47;;
68653;SDS011;55636;51.108;13.622;2023-01-09T04:20:17;15.83;;;12.37;;
68653;SDS011;55636;51.108;13.622;2023-01-09T04:21:20;16.23;;;12.47;;
68653;SDS011;55636;51.108;13.622;2023-01-09T04:22:22;15.10;;;12.07;;
68653;SDS011;55636;51.108;13.622;2023-01-09T04:23:24;15.10;;;11.80;;
68653;SDS011;55636;51.108;13.622;2023-01-09T04:24:26;15.77;;;12.30;;
68653;SDS011;55636;51.108;13.622;2023-01-09T04:25:29;15.20;;;11.97;;
68653;SDS011;55636;51.108;13.622;2023-01-09T04:26:32;15.70;;;11.97;;
68653;SDS011;55636;51.108;13.622;2023-01-09T04:27:34;14.13;;;12.37;;
68653;SDS011;55636;51.108;13.622;2023-01-09T04:28:38;15.27;;;11.97;;
68653;SDS011;55636;51.108;13.622;2023-01-09T04:29:41;16.83;;;12.20;;
68653;SDS011;55636;51.108;13.622;2023-01-09T04:30:44;15.20;;;12.23;;
68653;SDS011;55636;51.108;13.622;2023-01-09T04:31:46;15.63;;;12.13;;
68653;SDS011;55636;51.108;13.622;2023-01-09T04:32:48;15.47;;;11.97;;
68653;SDS011;55636;51.108;13.622;2023-01-09T04:33:52;15.83;;;12.33;;
68653;SDS011;55636;51.108;13.622;2023-01-09T04:34:56;17.23;;;12.80;;
68653;SDS011;55636;51.108;13.622;2023-01-09T04:35:58;15.43;;;12.50;;
68653;SDS011;55636;51.108;13.622;2023-01-09T04:37:08;14.43;;;11.37;;
68653;SDS011;55636;51.108;13.622;2023-01-09T04:38:10;16.37;;;12.53;;
68653;SDS011;55636;51.108;13.622;2023-01-09T04:39:13;15.67;;;12.20;;
68653;SDS011;55636;51.108;13.622;2023-01-09T04:40:17;15.47;;;11.90;;
68653;SDS011;55636;51.108;13.622;2023-01-09T04:41:20;15.40;;;12.00;;
68653;SDS011;55636;51.108;13.622;2023-01-09T04:42:41;14.93;;;11.27;;
68653;SDS011;55636;51.108;13.622;2023-01-09T04:43:43;14.97;;;12.53;;
68653;SDS011;55636;51.108;13.622;2023-01-09T04:44:45;15.60;;;12.30;;
68653;SDS011;55636;51.108;13.622;2023-01-09T04:45:49;16.50;;;12.60;;
68653;SDS011;55636;51.108;13.622;2023-01-09T04:46:52;16.90;;;12.37;;
68653;SDS011;55636;51.108;13.622;2023-01-09T04:47:55;16.20;;;11.73;;
68653;SDS011;55636;51.108;13.622;2023-01-09T04:48:57;15.67;;;12.07;;
68653;SDS011;55636;51.108;13.622;2023-01-09T04:50:02;17.13;;;12.33;;
68653;SDS011;55636;51.108;13.622;2023-01-09T04:51:04;16.10;;;12.17;;
68653;SDS011;55636;51.108;13.622;2023-01-09T04:52:06;16.00;;;12.20;;
68653;SDS011;55636;51.108;13.622;2023-01-09T04:53:12;15.33;;;12.33;;
68653;SDS011;55636;51.108;13.622;2023-01-09T04:54:14;15.17;;;12.53;;
68653;SDS011;55636;51.108;13.622;2023-01-09T04:55:17;17.63;;;11.93;;
68653;SDS011;55636;51.108;13.622;2023-01-09T04:56:19;15.80;;;11.03;;
68653;SDS011;55636;51.108;13.622;2023-01-09T04:57:24;14.97;;;12.43;;
68653;SDS011;55636;51.108;13.622;2023-01-09T04:58:27;14.00;;;11.47;;
68653;SDS011;55636;51.108;13.622;2023-01-09T04:59:30;14.90;;;12.47;;
68653;SDS011;55636;51.108;13.622;2023-01-09T05:00:32;15.93;;;12.37;;
68653;SDS011;55636;51.108;13.622;2023-01-09T05:01:34;15.83;;;12.30;;
68653;SDS011;55636;51.108;13.622;2023-01-09T05:02:38;16.30;;;12.17;;
68653;SDS011;55636;51.108;13.622;2023-01-09T05:03:41;16.80;;;12.63;;
68653;SDS011;55636;51.108;13.622;2023-01-09T05:04:43;17.60;;;12.23;;
68653;SDS011;55636;51.108;13.622;2023-01-09T05:05:45;15.83;;;12.47;;
68653;SDS011;55636;51.108;13.622;2023-01-09T05:06:48;15.10;;;11.67;;
68653;SDS011;55636;51.108;13.622;2023-01-09T05:07:50;14.70;;;11.87;;
68653;SDS011;55636;51.108;13.622;2023-01-09T05:08:52;15.20;;;12.77;;
68653;SDS011;55636;51.108;13.622;2023-01-09T05:09:57;15.80;;;11.97;;
68653;SDS011;55636;51.108;13.622;2023-01-09T05:11:00;16.87;;;12.63;;
68653;SDS011;55636;51.108;13.622;2023-01-09T05:12:02;16.13;;;12.37;;
68653;SDS011;55636;51.108;13.622;2023-01-09T05:13:04;15.53;;;12.00;;
68653;SDS011;55636;51.108;13.622;2023-01-09T05:14:10;15.67;;;11.90;;
68653;SDS011;55636;51.108;13.622;2023-01-09T05:15:13;15.60;;;12.67;;
68653;SDS011;55636;51.108;13.622;2023-01-09T05:16:16;16.57;;;12.37;;
68653;SDS011;55636;51.108;13.622;2023-01-09T05:17:18;14.80;;;12.03;;
68653;SDS011;55636;51.108;13.622;2023-01-09T05:18:20;15.50;;;12.13;;
68653;SDS011;55636;51.108;13.622;2023-01-09T05:19:23;14.93;;;11.87;;
68653;SDS011;55636;51.108;13.622;2023-01-09T05:20:25;16.77;;;11.77;;
68653;SDS011;55636;51.108;13.622;2023-01-09T05:21:30;15.27;;;11.63;;
68653;SDS011;55636;51.108;13.622;2023-01-09T05:22:32;14.67;;;11.67;;
68653;SDS011;55636;51.108;13.622;2023-01-09T05:23:35;14.90;;;11.80;;
68653;SDS011;55636;51.108;13.622;2023-01-09T05:24:37;13.90;;;11.73;;
68653;SDS011;55636;51.108;13.622;2023-01-09T05:25:42;15.73;;;12.13;;
68653;SDS011;55636;51.108;13.622;2023-01-09T05:26:45;16.47;;;12.23;;
68653;SDS011;55636;51.108;13.622;2023-01-09T05:27:47;14.27;;;11.40;;
68653;SDS011;55636;51.108;13.622;2023-01-09T05:28:52;15.10;;;11.30;;
68653;SDS011;55636;51.108;13.622;2023-01-09T05:29:57;15.33;;;11.40;;
68653;SDS011;55636;51.108;13.622;2023-01-09T05:30:59;15.60;;;11.97;;
68653;SDS011;55636;51.108;13.622;2023-01-09T05:32:01;14.57;;;11.37;;
68653;SDS011;55636;51.108;13.622;2023-01-09T05:33:04;16.53;;;12.03;;
68653;SDS011;55636;51.108;13.622;2023-01-09T05:34:06;15.63;;;11.77;;
68653;SDS011;55636;51.108;13.622;2023-01-09T05:35:08;14.33;;;11.60;;
68653;SDS011;55636;51.108;13.622;2023-01-09T05:36:11;14.60;;;11.87;;
68653;SDS011;55636;51.108;13.622;2023-01-09T05:37:13;14.37;;;11.50;;
68653;SDS011;55636;51.108;13.622;2023-01-09T05:38:15;14.77;;;11.23;;
68653;SDS011;55636;51.108;13.622;2023-01-09T05:39:18;16.17;;;12.20;;
68653;SDS011;55636;51.108;13.622;2023-01-09T05:40:20;14.27;;;11.30;;
68653;SDS011;55636;51.108;13.622;2023-01-09T05:41:29;16.77;;;12.40;;
68653;SDS011;55636;51.108;13.622;2023-01-09T05:42:31;14.43;;;11.10;;
68653;SDS011;55636;51.108;13.622;2023-01-09T05:43:34;15.40;;;11.63;;
68653;SDS011;55636;51.108;13.622;2023-01-09T05:44:36;14.40;;;11.27;;
68653;SDS011;55636;51.108;13.622;2023-01-09T05:45:39;14.80;;;11.43;;
68653;SDS011;55636;51.108;13.622;2023-01-09T05:46:42;13.60;;;11.20;;
68653;SDS011;55636;51.108;13.622;2023-01-09T05:47:47;14.03;;;11.70;;
68653;SDS011;55636;51.108;13.622;2023-01-09T05:48:50;13.80;;;11.00;;
68653;SDS011;55636;51.108;13.622;2023-01-09T05:49:53;19.57;;;11.63;;
68653;SDS011;55636;51.108;13.622;2023-01-09T05:50:57;15.17;;;11.57;;
68653;SDS011;55636;51.108;13.622;2023-01-09T05:51:59;14.13;;;11.23;;
68653;SDS011;55636;51.108;13.622;2023-01-09T05:53:01;15.73;;;11.60;;
68653;SDS011;55636;51.108;13.622;2023-01-09T05:54:04;13.47;;;10.90;;
68653;SDS011;55636;51.108;13.622;2023-01-09T05:55:08;15.53;;;11.83;;
68653;SDS011;55636;51.108;13.622;2023-01-09T05:56:12;14.67;;;10.97;;
68653;SDS011;55636;51.108;13.622;2023-01-09T05:57:15;15.20;;;11.80;;
68653;SDS011;55636;51.108;13.622;2023-01-09T05:58:17;14.23;;;11.83;;
68653;SDS011;55636;51.108;13.622;2023-01-09T05:59:20;13.90;;;11.60;;
68653;SDS011;55636;51.108;13.622;2023-01-09T06:00:22;15.87;;;11.77;;
68653;SDS011;55636;51.108;13.622;2023-01-09T06:01:27;13.57;;;10.80;;
68653;SDS011;55636;51.108;13.622;2023-01-09T06:02:29;14.27;;;11.17;;
68653;SDS011;55636;51.108;13.622;2023-01-09T06:03:39;16.90;;;11.80;;
68653;SDS011;55636;51.108;13.622;2023-01-09T06:04:42;14.53;;;11.87;;
68653;SDS011;55636;51.108;13.622;2023-01-09T06:05:44;13.10;;;10.87;;
68653;SDS011;55636;51.108;13.622;2023-01-09T06:06:47;15.57;;;11.57;;
68653;SDS011;55636;51.108;13.622;2023-01-09T06:07:51;13.63;;;10.90;;
68653;SDS011;55636;51.108;13.622;2023-01-09T06:08:54;13.43;;;10.93;;
68653;SDS011;55636;51.108;13.622;2023-01-09T06:09:56;16.47;;;11.60;;
68653;SDS011;55636;51.108;13.622;2023-01-09T06:10:58;13.90;;;10.93;;
68653;SDS011;55636;51.108;13.622;2023-01-09T06:12:06;14.13;;;11.20;;
68653;SDS011;55636;51.108;13.622;2023-01-09T06:13:09;13.90;;;11.60;;
68653;SDS011;55636;51.108;13.622;2023-01-09T06:14:11;16.53;;;11.87;;
68653;SDS011;55636;51.108;13.622;2023-01-09T06:15:13;14.57;;;11.10;;
68653;SDS011;55636;51.108;13.622;2023-01-09T06:16:19;15.83;;;11.73;;
68653;SDS011;55636;51.108;13.622;2023-01-09T06:17:21;15.03;;;11.83;;
68653;SDS011;55636;51.108;13.622;2023-01-09T06:18:23;16.60;;;11.50;;
68653;SDS011;55636;51.108;13.622;2023-01-09T06:19:33;14.13;;;11.30;;
68653;SDS011;55636;51.108;13.622;2023-01-09T06:20:36;13.93;;;11.30;;
68653;SDS011;55636;51.108;13.622;2023-01-09T06:21:38;15.40;;;11.80;;
68653;SDS011;55636;51.108;13.622;2023-01-09T06:22:43;14.37;;;11.77;;
68653;SDS011;55636;51.108;13.622;2023-01-09T06:23:46;15.80;;;11.47;;
68653;SDS011;55636;51.108;13.622;2023-01-09T06:24:48;15.27;;;11.53;;
68653;SDS011;55636;51.108;13.622;2023-01-09T06:25:50;14.80;;;11.43;;
68653;SDS011;55636;51.108;13.622;2023-01-09T06:26:52;15.13;;;11.23;;
68653;SDS011;55636;51.108;13.622;2023-01-09T06:27:55;14.83;;;11.37;;
68653;SDS011;55636;51.108;13.622;2023-01-09T06:28:57;14.60;;;11.63;;
68653;SDS011;55636;51.108;13.622;2023-01-09T06:30:01;14.00;;;11.03;;
68653;SDS011;55636;51.108;13.622;2023-01-09T06:31:04;13.90;;;11.10;;
68653;SDS011;55636;51.108;13.622;2023-01-09T06:32:06;14.33;;;10.77;;
68653;SDS011;55636;51.108;13.622;2023-01-09T06:33:08;14.63;;;10.70;;
68653;SDS011;55636;51.108;13.622;2023-01-09T06:34:11;13.73;;;10.93;;
68653;SDS011;55636;51.108;13.622;2023-01-09T06:35:14;13.97;;;11.00;;
68653;SDS011;55636;51.108;13.622;2023-01-09T06:36:21;14.07;;;11.03;;
68653;SDS011;55636;51.108;13.622;2023-01-09T06:37:26;12.50;;;10.60;;
68653;SDS011;55636;51.108;13.622;2023-01-09T06:38:29;15.67;;;11.20;;